TimeEST,TemperatureF,Dew PointF,Humidity,Sea Level PressureIn,VisibilityMPH,Wind Direction,Wind SpeedMPH,Gust SpeedMPH,PrecipitationIn,Events,Conditions,WindDirDegrees,DateUTC
12:58 AM,46.8,39.2,75,30.28,10.0,NE,3.5,-,N/A,,Clear,40,2013-12-01 05:58:00
1:58 AM,45.7,38.7,76,30.27,10.0,NNE,4.6,-,N/A,,Partly Cloudy,30,2013-12-01 06:58:00
2:58 AM,-9999,-9999,N/A,-9999,10.0,NNE,4.6,-,N/A,,Scattered Clouds,30,2013-12-01 07:58:00
3:10 AM,-9999,-9999,N/A,30.24,10.0,NNE,4.6,-,N/A,,Mostly Cloudy,20,2013-12-01 08:10:00
3:16 AM,-9999,-9999,N/A,-9999,10.0,North,1.2,-,N/A,,Mostly Cloudy,10,2013-12-01 08:16:00
3:32 AM,-9999,-9999,N/A,-9999,10.0,NNE,3.5,-,N/A,,Scattered Clouds,30,2013-12-01 08:32:00
3:58 AM,-9999,-9999,N/A,-9999,10.0,North,4.6,-,N/A,,Scattered Clouds,10,2013-12-01 08:58:00
4:02 AM,-9999,-9999,N/A,-9999,10.0,NNE,3.5,-,N/A,,Mostly Cloudy,20,2013-12-01 09:02:00
4:32 AM,-9999,-9999,N/A,-9999,10.0,NNE,3.5,-,N/A,,Overcast,20,2013-12-01 09:32:00
4:39 AM,-9999,-9999,N/A,-9999,10.0,NNE,3.5,-,N/A,,Overcast,30,2013-12-01 09:39:00
4:51 AM,-9999,-9999,N/A,-9999,10.0,North,4.6,-,N/A,,Overcast,10,2013-12-01 09:51:00
4:58 AM,-9999,-9999,N/A,30.23,10.0,North,3.5,-,N/A,,Overcast,10,2013-12-01 09:58:00
5:02 AM,-9999,-9999,N/A,30.23,10.0,North,3.5,-,N/A,,Mostly Cloudy,10,2013-12-01 10:02:00
5:10 AM,-9999,-9999,N/A,30.23,10.0,NNE,3.5,-,N/A,,Overcast,20,2013-12-01 10:10:00
5:58 AM,45.5,40.1,81,30.23,10.0,North,3.5,-,N/A,,Overcast,10,2013-12-01 10:58:00
6:58 AM,45.9,40.3,81,30.24,10.0,North,4.6,-,N/A,,Overcast,10,2013-12-01 11:58:00
7:58 AM,46.4,41.0,81,30.25,10.0,North,5.8,-,N/A,,Overcast,10,2013-12-01 12:58:00
8:58 AM,49.5,42.3,76,30.27,10.0,NNE,4.6,-,N/A,,Overcast,30,2013-12-01 13:58:00
9:34 AM,51.8,42.8,71,30.26,10.0,North,6.9,-,N/A,,Overcast,10,2013-12-01 14:34:00
9:38 AM,51.8,42.8,71,30.26,10.0,NNE,4.6,-,N/A,,Overcast,20,2013-12-01 14:38:00
9:58 AM,53.1,44.2,72,30.26,10.0,North,4.6,-,N/A,,Overcast,10,2013-12-01 14:58:00
10:32 AM,55.4,46.4,72,30.23,10.0,Variable,2.3,-,N/A,,Overcast,0,2013-12-01 15:32:00
10:48 AM,57.2,48.2,72,30.22,10.0,Variable,2.3,-,N/A,,Scattered Clouds,0,2013-12-01 15:48:00
10:58 AM,58.3,48.0,69,30.23,10.0,NNW,3.5,-,N/A,,Partly Cloudy,340,2013-12-01 15:58:00
11:58 AM,62.1,49.6,64,30.20,10.0,SSW,2.3,-,N/A,,Clear,210,2013-12-01 16:58:00
12:58 PM,64.4,51.3,62,30.17,10.0,WNW,5.8,-,N/A,,Clear,300,2013-12-01 17:58:00
1:58 PM,66.7,52.9,61,30.13,10.0,Variable,3.5,-,N/A,,Clear,0,2013-12-01 18:58:00
2:58 PM,65.7,53.1,64,30.10,10.0,NW,5.8,-,N/A,,Partly Cloudy,320,2013-12-01 19:58:00
3:58 PM,64.6,53.1,66,30.09,10.0,North,5.8,-,N/A,,Clear,360,2013-12-01 20:58:00
4:58 PM,62.1,53.2,73,30.08,10.0,North,3.5,-,N/A,,Scattered Clouds,10,2013-12-01 21:58:00
5:58 PM,57.7,53.4,85,30.09,10.0,NW,3.5,-,N/A,,Mostly Cloudy,320,2013-12-01 22:58:00
6:58 PM,56.7,52.9,87,30.08,10.0,NNE,2.3,-,N/A,,Scattered Clouds,30,2013-12-01 23:58:00
7:58 PM,54.5,52.3,92,30.07,10.0,North,4.6,-,N/A,,Clear,350,2013-12-02 00:58:00
8:58 PM,55.2,51.8,88,30.06,10.0,Calm,Calm,-,N/A,,Overcast,0,2013-12-02 01:58:00
9:58 PM,54.1,52.2,93,30.06,10.0,Calm,Calm,-,N/A,,Scattered Clouds,0,2013-12-02 02:58:00
10:58 PM,53.1,52.3,97,30.05,10.0,North,2.3,-,N/A,,Scattered Clouds,10,2013-12-02 03:58:00
11:58 PM,53.8,52.2,94,30.03,10.0,ENE,2.3,-,N/A,,Overcast,60,2013-12-02 04:58:00